createdAt,value
2018-01-31T01:53:16.929Z,18.60
2018-01-31T01:55:42.721Z,18.55
2018-01-31T01:58:08.507Z,18.47
2018-01-31T02:00:34.290Z,18.46
2018-01-31T02:03:00.203Z,18.69
2018-01-31T02:05:25.986Z,18.76
2018-01-31T02:07:51.802Z,18.40
2018-01-31T02:10:17.604Z,18.54
2018-01-31T02:12:43.390Z,18.67
2018-01-31T02:15:09.166Z,18.75
2018-01-31T02:17:35.846Z,18.69
2018-01-31T02:20:01.634Z,18.78
2018-01-31T02:22:28.399Z,18.66
2018-01-31T02:24:55.201Z,18.85
2018-01-31T02:27:21.886Z,18.86
2018-01-31T02:29:48.752Z,18.60
2018-01-31T02:32:15.513Z,18.78
2018-01-31T02:34:41.302Z,18.77
2018-01-31T02:37:07.081Z,18.72
2018-01-31T02:42:30.744Z,18.83
2018-01-31T02:44:57.429Z,18.69
2018-01-31T02:47:24.141Z,18.72
2018-01-31T02:49:50.917Z,18.70
2018-01-31T02:52:16.697Z,18.72
2018-01-31T02:54:42.482Z,18.74
2018-01-31T02:57:08.270Z,18.56
2018-01-31T02:59:34.053Z,18.64
2018-01-31T03:01:59.837Z,18.73
2018-01-31T03:04:26.501Z,18.71
2018-01-31T03:06:53.257Z,18.73
2018-01-31T03:09:19.036Z,18.56
2018-01-31T03:11:44.818Z,18.75
2018-01-31T03:14:10.596Z,18.82
2018-01-31T03:16:36.382Z,18.74
2018-01-31T03:19:02.161Z,18.70
2018-01-31T03:21:27.948Z,18.50
2018-01-31T03:23:53.728Z,18.57
2018-01-31T03:26:19.506Z,18.39
2018-01-31T03:28:45.281Z,18.44
2018-01-31T03:31:11.065Z,18.42
2018-01-31T03:33:36.836Z,18.53
2018-01-31T03:36:02.637Z,18.38
2018-01-31T03:38:29.360Z,18.56
2018-01-31T03:40:56.114Z,18.58
2018-01-31T03:43:21.898Z,18.57
2018-01-31T03:45:47.680Z,18.43
2018-01-31T03:48:13.509Z,18.67
2018-01-31T03:50:39.280Z,18.73
2018-01-31T03:53:05.063Z,18.51
2018-01-31T03:55:30.880Z,18.71
2018-01-31T03:57:56.652Z,18.66
2018-01-31T04:00:23.311Z,18.70
2018-01-31T04:02:50.035Z,18.66
2018-01-31T04:05:15.808Z,18.70
2018-01-31T04:07:41.594Z,18.68
2018-01-31T04:10:07.377Z,18.58
2018-01-31T04:12:33.151Z,18.69
2018-01-31T04:14:58.931Z,18.67
2018-01-31T04:17:24.705Z,18.58
2018-01-31T04:19:51.345Z,18.68
2018-01-31T04:22:17.121Z,18.50
2018-01-31T04:24:42.901Z,18.73
2018-01-31T04:27:08.708Z,18.64
2018-01-31T04:29:35.389Z,18.67
2018-01-31T04:32:01.287Z,18.76
2018-01-31T04:34:27.065Z,18.41
2018-01-31T04:36:53.842Z,18.51
2018-01-31T04:39:20.574Z,18.56
2018-01-31T04:41:46.740Z,18.60
2018-01-31T04:44:13.512Z,18.63
2018-01-31T04:46:40.133Z,18.73
2018-01-31T04:49:06.902Z,18.74
2018-01-31T04:51:32.708Z,18.72
2018-01-31T04:53:58.496Z,18.77
2018-01-31T04:56:25.205Z,18.68
2018-01-31T04:58:51.865Z,18.58
2018-01-31T05:01:18.717Z,18.51
2018-01-31T05:03:45.441Z,18.73
2018-01-31T05:06:11.226Z,18.61
2018-01-31T05:08:37.001Z,18.52
2018-01-31T05:11:02.813Z,18.51
2018-01-31T05:13:28.588Z,18.72
2018-01-31T05:15:54.397Z,18.67
2018-01-31T05:18:20.168Z,18.67
2018-01-31T05:20:45.973Z,18.61
2018-01-31T05:23:11.781Z,18.51
2018-01-31T05:25:38.378Z,18.56
2018-01-31T05:28:04.160Z,18.61
2018-01-31T05:30:29.984Z,18.70
2018-01-31T05:32:57.817Z,18.68
2018-01-31T05:35:24.386Z,18.64
2018-01-31T05:37:50.214Z,18.75
2018-01-31T05:40:17.013Z,18.68
2018-01-31T05:42:42.777Z,18.74
2018-01-31T05:45:08.545Z,18.67
2018-01-31T05:47:34.349Z,18.72
2018-01-31T05:50:00.966Z,18.61
2018-01-31T05:52:26.784Z,18.70
2018-01-31T05:54:53.383Z,18.69
2018-01-31T05:57:20.113Z,18.64
2018-01-31T05:59:45.882Z,18.72
2018-01-31T06:02:12.613Z,18.71
2018-01-31T06:04:39.432Z,18.59
2018-01-31T06:07:06.224Z,18.54
2018-01-31T06:09:32.044Z,18.69
2018-01-31T06:11:57.813Z,18.71
2018-01-31T06:14:24.543Z,18.64
2018-01-31T06:16:51.305Z,18.62
2018-01-31T06:19:17.081Z,18.63
2018-01-31T06:21:42.871Z,18.60
2018-01-31T06:24:08.683Z,18.66
2018-01-31T06:26:34.467Z,18.59
2018-01-31T06:29:00.237Z,18.57
2018-01-31T06:31:26.089Z,18.57
2018-01-31T06:33:51.877Z,18.68
2018-01-31T06:36:17.798Z,18.71
2018-01-31T06:38:43.590Z,18.74
2018-01-31T06:41:09.485Z,18.61
2018-01-31T06:43:35.253Z,18.62
2018-01-31T06:46:01.868Z,18.75
2018-01-31T06:48:27.641Z,18.61
2018-01-31T06:50:53.417Z,18.77
2018-01-31T06:53:20.201Z,18.70
2018-01-31T06:55:45.969Z,18.62
2018-01-31T06:58:12.741Z,18.68
2018-01-31T07:00:38.516Z,18.60
2018-01-31T07:03:04.286Z,18.72
2018-01-31T07:05:30.120Z,18.71
2018-01-31T07:07:55.929Z,18.69
2018-01-31T07:10:21.697Z,18.68
2018-01-31T07:12:48.393Z,18.72
2018-01-31T07:15:14.170Z,18.77
2018-01-31T07:17:40.016Z,18.77
2018-01-31T07:20:06.740Z,18.82
2018-01-31T07:22:32.530Z,18.70
2018-01-31T07:24:58.348Z,18.70
2018-01-31T07:27:24.128Z,18.68
2018-01-31T07:29:50.729Z,18.73
2018-01-31T07:32:16.501Z,18.71
2018-01-31T07:34:42.277Z,18.85
2018-01-31T07:37:08.046Z,18.80
2018-01-31T07:39:33.826Z,18.81
2018-01-31T07:41:59.608Z,18.80
2018-01-31T07:44:25.385Z,18.83
2018-01-31T07:46:51.164Z,18.77
2018-01-31T07:49:16.942Z,18.65
2018-01-31T07:51:42.730Z,18.76
2018-01-31T07:54:08.509Z,18.82
2018-01-31T07:56:34.344Z,18.66
2018-01-31T07:59:00.096Z,18.82
2018-01-31T08:01:25.869Z,18.82
2018-01-31T08:03:51.645Z,18.81
2018-01-31T08:06:17.420Z,18.73
2018-01-31T08:08:43.197Z,18.78
2018-01-31T08:11:08.969Z,18.80
2018-01-31T08:13:35.758Z,18.70
2018-01-31T08:16:01.564Z,18.79
2018-01-31T08:18:27.366Z,18.68
2018-01-31T08:20:53.210Z,18.61
2018-01-31T08:23:19.059Z,18.71
2018-01-31T08:25:44.841Z,18.76
2018-01-31T08:28:11.081Z,18.61
2018-01-31T08:30:36.990Z,18.48
2018-01-31T08:33:02.801Z,18.71
2018-01-31T08:35:28.589Z,18.73
2018-01-31T08:37:54.754Z,18.72
2018-01-31T08:40:20.677Z,18.68
2018-01-31T08:42:46.493Z,18.76
2018-01-31T08:45:12.270Z,18.78
2018-01-31T08:47:38.971Z,18.85
2018-01-31T08:50:05.772Z,18.78
2018-01-31T08:52:31.559Z,18.85
2018-01-31T08:54:57.338Z,18.85
2018-01-31T08:57:24.009Z,18.84
2018-01-31T08:59:49.826Z,18.72
2018-01-31T09:02:15.605Z,18.80
2018-01-31T09:04:41.435Z,18.74
2018-01-31T09:07:07.222Z,18.82
2018-01-31T09:09:34.025Z,18.90
2018-01-31T09:11:59.809Z,18.67
2018-01-31T09:14:25.590Z,18.81
2018-01-31T09:16:52.268Z,18.89
2018-01-31T09:19:18.046Z,18.98
2018-01-31T09:21:43.837Z,18.84
2018-01-31T09:24:09.679Z,18.82
2018-01-31T09:26:36.376Z,18.89
2018-01-31T09:29:02.161Z,18.88
2018-01-31T09:31:27.962Z,18.82
2018-01-31T09:33:53.789Z,18.92
2018-01-31T09:36:19.570Z,18.81
2018-01-31T09:38:46.204Z,18.81
2018-01-31T09:41:13.025Z,18.85
2018-01-31T09:43:39.847Z,18.85
2018-01-31T09:46:05.625Z,18.86
2018-01-31T09:48:32.348Z,18.77
2018-01-31T09:50:58.271Z,18.79
2018-01-31T09:53:25.048Z,18.93
2018-01-31T09:55:50.837Z,18.80
2018-01-31T09:58:17.427Z,18.66
2018-01-31T10:00:43.438Z,18.84
2018-01-31T10:03:09.221Z,18.79
2018-01-31T10:05:35.032Z,18.76
2018-01-31T10:08:00.809Z,18.88
2018-01-31T10:10:27.377Z,18.79
2018-01-31T10:12:54.094Z,18.73
2018-01-31T10:15:20.984Z,18.86
2018-01-31T10:17:47.814Z,18.85
2018-01-31T10:20:13.594Z,18.84
2018-01-31T10:22:39.425Z,18.90
2018-01-31T10:25:05.360Z,18.87
2018-01-31T10:27:31.914Z,18.95
2018-01-31T10:29:57.693Z,19.05
2018-01-31T10:32:24.464Z,18.92
2018-01-31T10:34:51.241Z,19.05
2018-01-31T10:37:17.018Z,18.77
2018-01-31T10:39:42.814Z,18.87
2018-01-31T10:42:08.595Z,18.88
2018-01-31T10:44:34.365Z,18.97
2018-01-31T10:47:00.150Z,19.00
2018-01-31T10:49:26.892Z,19.00
2018-01-31T10:51:52.709Z,18.99
2018-01-31T10:59:10.209Z,18.96
2018-01-31T11:01:35.990Z,18.92
2018-01-31T11:04:01.775Z,19.02
2018-01-31T11:06:27.561Z,18.86
2018-01-31T11:08:54.393Z,18.92
2018-01-31T11:11:20.750Z,18.87
2018-01-31T11:13:46.589Z,18.81
2018-01-31T11:16:13.321Z,18.90
2018-01-31T11:18:39.096Z,18.92
2018-01-31T11:21:04.881Z,18.90
2018-01-31T11:23:30.662Z,18.85
2018-01-31T11:25:56.433Z,18.96
2018-01-31T11:28:22.330Z,18.78
2018-01-31T11:30:49.103Z,19.04
2018-01-31T11:33:14.882Z,19.04
2018-01-31T11:35:41.605Z,19.06
2018-01-31T11:38:07.389Z,18.99
2018-01-31T11:40:33.170Z,18.98
2018-01-31T11:42:58.958Z,18.91
2018-01-31T11:45:24.741Z,18.82
2018-01-31T11:47:51.458Z,18.99
2018-01-31T11:50:17.236Z,19.02
2018-01-31T11:52:44.058Z,18.96
2018-01-31T11:55:09.841Z,18.95
2018-01-31T11:57:35.617Z,19.00
2018-01-31T12:00:01.394Z,19.12
2018-01-31T12:02:27.178Z,18.68
2018-01-31T12:04:52.958Z,18.69
2018-01-31T12:07:18.755Z,18.85
2018-01-31T12:09:44.536Z,18.83
2018-01-31T12:12:10.360Z,18.98
2018-01-31T12:14:42.269Z,18.98
2018-01-31T12:17:10.003Z,18.86
2018-01-31T12:19:41.879Z,18.99
2018-01-31T12:22:14.540Z,19.01
2018-01-31T12:24:47.365Z,19.04
2018-01-31T12:27:19.331Z,18.93
2018-01-31T12:29:51.142Z,18.72
2018-01-31T12:32:23.077Z,18.84
2018-01-31T12:34:54.895Z,19.00
2018-01-31T12:37:26.649Z,18.89
2018-01-31T12:39:52.367Z,19.04
2018-01-31T12:42:18.082Z,18.91
2018-01-31T12:44:43.811Z,18.98
2018-01-31T12:47:15.701Z,18.94
2018-01-31T12:49:47.469Z,19.01
2018-01-31T12:52:28.218Z,19.03
2018-01-31T12:55:00.219Z,19.06
2018-01-31T12:57:30.352Z,18.93
2018-01-31T13:00:02.354Z,18.97
2018-01-31T13:02:34.154Z,18.88
2018-01-31T13:05:12.138Z,19.09
2018-01-31T13:07:44.133Z,19.14
2018-01-31T13:10:16.085Z,18.93
2018-01-31T13:12:48.003Z,19.00
2018-01-31T13:15:20.503Z,18.95
2018-01-31T13:17:52.581Z,18.95
2018-01-31T13:20:21.306Z,19.14
2018-01-31T13:23:04.660Z,19.17
2018-01-31T13:25:36.438Z,19.02
2018-01-31T13:28:15.589Z,19.09
2018-01-31T13:30:47.529Z,19.12
2018-01-31T13:33:25.384Z,19.26
2018-01-31T13:35:57.286Z,19.31
2018-01-31T13:38:29.210Z,19.19
2018-01-31T13:41:01.164Z,19.20
2018-01-31T13:43:33.049Z,19.18
2018-01-31T13:46:05.069Z,19.18
2018-01-31T13:48:37.094Z,19.28
2018-01-31T13:51:03.704Z,19.21
2018-01-31T13:53:35.717Z,19.30
2018-01-31T13:56:07.706Z,19.15
2018-01-31T13:58:39.791Z,19.07
2018-01-31T14:01:11.738Z,19.08
2018-01-31T14:03:43.717Z,19.21
2018-01-31T14:06:15.676Z,19.07
2018-01-31T14:08:47.521Z,19.09
2018-01-31T14:11:19.307Z,19.23
2018-01-31T14:13:51.198Z,19.21
2018-01-31T14:16:22.972Z,19.05
2018-01-31T14:18:54.926Z,19.30
2018-01-31T14:21:26.873Z,19.18
2018-01-31T14:23:58.794Z,19.03
2018-01-31T14:26:30.555Z,19.05
2018-01-31T14:29:02.345Z,19.02
2018-01-31T14:31:34.248Z,19.08
2018-01-31T14:34:06.321Z,18.92
2018-01-31T14:36:32.936Z,19.02
2018-01-31T14:38:58.649Z,19.04
2018-01-31T14:41:24.373Z,18.99
2018-01-31T14:43:50.935Z,19.05
2018-01-31T14:46:17.582Z,18.96
2018-01-31T14:48:43.338Z,19.08
2018-01-31T14:51:09.057Z,19.01
2018-01-31T14:53:34.774Z,19.10
2018-01-31T14:56:00.514Z,19.03
2018-01-31T14:58:26.232Z,18.97
2018-01-31T15:00:52.036Z,19.04
2018-01-31T15:03:17.753Z,18.94
2018-01-31T15:05:44.414Z,18.98
2018-01-31T15:08:10.140Z,19.09
2018-01-31T15:10:35.893Z,19.03
2018-01-31T15:13:01.603Z,18.97
2018-01-31T15:15:27.349Z,18.96
2018-01-31T15:17:53.060Z,19.08
2018-01-31T15:20:18.772Z,19.06
2018-01-31T15:22:44.494Z,19.24
2018-01-31T15:25:10.221Z,19.16
2018-01-31T15:27:35.986Z,19.12
2018-01-31T15:30:01.706Z,19.23
2018-01-31T15:32:27.417Z,19.21
2018-01-31T15:34:53.172Z,19.38
2018-01-31T15:37:18.876Z,19.30
2018-01-31T15:39:44.633Z,19.28
2018-01-31T15:42:10.357Z,19.23
2018-01-31T15:44:36.090Z,19.41
2018-01-31T15:47:01.817Z,19.32
2018-01-31T15:49:27.524Z,19.14
2018-01-31T15:51:53.242Z,19.26
2018-01-31T15:54:19.000Z,19.22
2018-01-31T15:56:44.722Z,19.37
2018-01-31T15:59:10.444Z,19.23
2018-01-31T16:01:36.170Z,19.29
2018-01-31T16:04:01.882Z,19.28
2018-01-31T16:06:27.603Z,19.31
2018-01-31T16:08:53.353Z,19.18
2018-01-31T16:11:20.222Z,19.25
2018-01-31T16:13:45.944Z,19.17
2018-01-31T16:16:11.696Z,19.30
2018-01-31T16:18:43.613Z,19.25
2018-01-31T16:21:15.717Z,19.11
2018-01-31T16:23:41.518Z,19.08
2018-01-31T16:26:07.409Z,19.12
2018-01-31T16:31:31.992Z,19.21
2018-01-31T16:33:57.777Z,19.21
2018-01-31T16:36:23.560Z,19.18
2018-01-31T16:38:49.394Z,19.15
2018-01-31T16:41:16.022Z,19.18
2018-01-31T16:43:41.837Z,19.23
2018-01-31T16:46:07.627Z,19.30
2018-01-31T16:48:33.498Z,19.23
2018-01-31T16:50:59.345Z,19.20
2018-01-31T16:53:25.125Z,19.27
2018-01-31T16:55:50.941Z,19.27
2018-01-31T16:58:16.767Z,19.39
2018-01-31T17:00:42.774Z,19.49
2018-01-31T17:03:08.600Z,19.45
2018-01-31T17:05:34.389Z,19.41
2018-01-31T17:08:01.197Z,19.37
2018-01-31T17:10:27.036Z,19.32
2018-01-31T17:12:53.690Z,19.25
2018-01-31T17:15:19.521Z,19.38
2018-01-31T17:17:45.300Z,19.21
2018-01-31T17:20:11.114Z,19.13
2018-01-31T17:22:36.932Z,19.24
2018-01-31T17:25:02.782Z,19.29
2018-01-31T17:27:29.545Z,19.29
2018-01-31T17:29:55.321Z,19.18
2018-01-31T17:32:22.088Z,19.21
2018-01-31T17:34:47.905Z,19.15
2018-01-31T17:37:14.649Z,19.14
2018-01-31T17:39:40.428Z,19.22
2018-01-31T17:42:07.166Z,19.28
2018-01-31T17:44:32.973Z,19.31
2018-01-31T17:46:59.585Z,19.24
2018-01-31T17:49:26.353Z,19.38
2018-01-31T17:51:53.144Z,19.43
2018-01-31T17:54:19.973Z,19.61
2018-01-31T17:56:46.727Z,19.51
2018-01-31T17:59:12.504Z,19.58
2018-01-31T18:01:38.287Z,19.73
2018-01-31T18:04:04.084Z,19.59
2018-01-31T18:06:29.865Z,19.47
2018-01-31T18:08:55.654Z,19.44
2018-01-31T18:11:21.469Z,19.34
2018-01-31T18:13:47.244Z,19.28
2018-01-31T18:16:13.065Z,19.37
2018-01-31T18:18:38.845Z,19.29
2018-01-31T18:21:04.692Z,19.30
2018-01-31T18:23:30.476Z,19.30
2018-01-31T18:25:56.249Z,19.24
2018-01-31T18:28:22.045Z,19.21
2018-01-31T18:30:47.830Z,19.28
2018-01-31T18:33:13.656Z,19.33
2018-01-31T18:35:39.431Z,19.24
2018-01-31T18:38:06.181Z,19.22
2018-01-31T18:40:31.956Z,19.32
2018-01-31T18:42:57.738Z,19.28
2018-01-31T18:45:23.521Z,19.31
2018-01-31T18:47:49.296Z,19.28
2018-01-31T18:50:15.072Z,19.22
2018-01-31T18:52:40.881Z,19.20
2018-01-31T18:55:06.698Z,19.20
2018-01-31T18:57:32.581Z,19.25
2018-01-31T18:59:58.364Z,19.30
2018-01-31T19:02:24.184Z,19.20
2018-01-31T19:04:49.968Z,19.24
2018-01-31T19:07:16.659Z,19.24
2018-01-31T19:09:42.436Z,19.14
2018-01-31T19:12:09.162Z,19.29
2018-01-31T19:14:34.965Z,19.39
2018-01-31T19:17:00.751Z,19.50
2018-01-31T19:19:26.536Z,19.46
2018-01-31T19:21:52.306Z,19.46
2018-01-31T19:24:18.121Z,19.45
2018-01-31T19:26:43.889Z,19.34
2018-01-31T19:29:09.657Z,19.42
2018-01-31T19:31:35.465Z,19.45
2018-01-31T19:34:01.259Z,19.41
2018-01-31T19:36:27.929Z,19.42
2018-01-31T19:38:53.725Z,19.28
2018-01-31T19:41:19.536Z,19.36
2018-01-31T19:43:46.100Z,19.34
2018-01-31T19:46:11.908Z,19.39
2018-01-31T19:48:37.678Z,19.39
2018-01-31T19:51:03.494Z,19.35
2018-01-31T19:53:30.151Z,19.32
2018-01-31T19:55:55.933Z,19.32
2018-01-31T19:58:21.708Z,19.24
2018-01-31T20:00:48.344Z,19.35
2018-01-31T20:03:14.125Z,19.41
2018-01-31T20:05:39.898Z,19.29
2018-01-31T20:08:05.673Z,19.29
2018-01-31T20:10:31.461Z,19.20
2018-01-31T20:12:57.574Z,19.27
2018-01-31T20:15:23.349Z,19.22
2018-01-31T20:17:49.131Z,19.26
2018-01-31T20:20:14.906Z,19.32
2018-01-31T20:22:40.681Z,19.19
2018-01-31T20:25:06.457Z,19.31
2018-01-31T20:27:32.241Z,19.33
2018-01-31T20:29:58.019Z,19.21
2018-01-31T20:32:23.809Z,19.01
2018-01-31T20:34:49.585Z,19.19
2018-01-31T20:37:15.360Z,19.14
2018-01-31T20:39:41.169Z,19.22
2018-01-31T20:42:07.729Z,19.13
2018-01-31T20:44:33.590Z,19.24
2018-01-31T20:46:59.360Z,19.21
2018-01-31T20:49:26.093Z,19.29
2018-01-31T20:51:51.870Z,19.12
2018-01-31T20:54:18.714Z,19.24
2018-01-31T20:56:44.490Z,19.15
2018-01-31T21:01:57.204Z,19.30
2018-01-31T21:04:25.199Z,19.50
2018-01-31T21:06:52.731Z,19.53
2018-01-31T21:09:19.227Z,19.50
2018-01-31T21:11:58.070Z,19.49
2018-01-31T21:14:36.290Z,19.48
2018-01-31T21:17:03.097Z,19.60
2018-01-31T21:19:29.748Z,19.44
2018-01-31T21:21:56.551Z,19.44
2018-01-31T21:24:23.263Z,19.33
2018-01-31T21:26:49.976Z,19.45
2018-01-31T21:29:16.612Z,19.42
2018-01-31T21:31:42.655Z,19.39
2018-01-31T21:34:09.606Z,19.44
2018-01-31T21:36:35.977Z,19.34
2018-01-31T21:39:02.141Z,19.45
2018-01-31T21:41:30.837Z,19.36
2018-01-31T21:43:56.993Z,19.29
2018-01-31T21:46:23.200Z,19.38
2018-01-31T21:48:49.270Z,19.28
2018-01-31T21:51:15.100Z,19.29
2018-01-31T21:53:40.929Z,19.25
2018-01-31T21:56:06.965Z,19.28
2018-01-31T21:58:33.037Z,19.30
2018-01-31T22:00:58.953Z,19.21
2018-01-31T22:03:29.369Z,19.29
2018-01-31T22:05:55.152Z,19.18
2018-01-31T22:08:20.934Z,19.32
2018-01-31T22:10:46.750Z,19.29
2018-01-31T22:13:13.396Z,19.33
2018-01-31T22:15:39.185Z,19.28
2018-01-31T22:18:04.967Z,19.25
2018-01-31T22:20:30.745Z,19.10
2018-01-31T22:22:56.561Z,18.99
2018-01-31T22:25:23.229Z,19.20
2018-01-31T22:27:49.905Z,19.15
2018-01-31T22:30:16.671Z,19.22
2018-01-31T22:32:42.453Z,19.17
2018-01-31T22:35:08.220Z,19.20
2018-01-31T22:37:33.997Z,19.13
2018-01-31T22:39:59.777Z,19.01
2018-01-31T22:42:25.593Z,18.97
2018-01-31T22:44:51.377Z,18.96
2018-01-31T22:47:17.159Z,18.99
2018-01-31T22:49:42.937Z,19.00
2018-01-31T22:52:08.721Z,19.16
2018-01-31T22:54:35.344Z,19.12
2018-01-31T22:57:02.131Z,19.08
2018-01-31T22:59:28.015Z,18.96
2018-01-31T23:01:53.810Z,18.99
2018-01-31T23:04:19.611Z,18.90
2018-01-31T23:06:45.385Z,18.91
2018-01-31T23:09:11.172Z,19.23
2018-01-31T23:11:43.005Z,19.36
2018-01-31T23:14:14.798Z,19.30
2018-01-31T23:16:40.662Z,19.36
2018-01-31T23:19:06.445Z,19.51
2018-01-31T23:21:33.257Z,19.36
2018-01-31T23:23:59.037Z,19.31
2018-01-31T23:26:24.965Z,19.25
2018-01-31T23:28:50.742Z,19.26
2018-01-31T23:31:16.515Z,19.23
2018-01-31T23:33:42.317Z,19.22
2018-01-31T23:36:08.126Z,19.29
2018-01-31T23:38:33.958Z,19.20
2018-01-31T23:40:59.873Z,19.19
2018-01-31T23:43:25.649Z,19.22
2018-01-31T23:45:51.445Z,19.21
2018-01-31T23:48:17.334Z,19.18
2018-01-31T23:50:44.045Z,19.12
2018-01-31T23:53:09.828Z,19.11
2018-01-31T23:55:35.613Z,19.03
2018-01-31T23:58:01.385Z,19.32
